sensor_id;sensor_type;location;lat;lon;timestamp;P1;P2;P0
55549;PMS7003;41397;49.972;18.944;2022-07-17T00:01:43;2;2;2
55549;PMS7003;41397;49.972;18.944;2022-07-17T00:06:57;0;0;0
55549;PMS7003;41397;49.972;18.944;2022-07-17T00:12:11;0;0;0
55549;PMS7003;41397;49.972;18.944;2022-07-17T00:17:25;2;2;0
55549;PMS7003;41397;49.972;18.944;2022-07-17T00:21:00;4;4;2
55549;PMS7003;41397;49.972;18.944;2022-07-17T00:22:38;7;7;7
55549;PMS7003;41397;49.972;18.944;2022-07-17T00:27:55;2;2;2
55549;PMS7003;41397;49.972;18.944;2022-07-17T00:33:09;2;2;2
55549;PMS7003;41397;49.972;18.944;2022-07-17T00:38:23;5;5;4
55549;PMS7003;41397;49.972;18.944;2022-07-17T00:43:37;6;6;6
55549;PMS7003;41397;49.972;18.944;2022-07-17T00:48:54;3;3;2
55549;PMS7003;41397;49.972;18.944;2022-07-17T00:51:14;3;3;2
55549;PMS7003;41397;49.972;18.944;2022-07-17T00:54:11;4;4;3
55549;PMS7003;41397;49.972;18.944;2022-07-17T00:59:28;0;0;0
55549;PMS7003;41397;49.972;18.944;2022-07-17T01:04:46;7;7;5
55549;PMS7003;41397;49.972;18.944;2022-07-17T01:10:03;2;2;1
55549;PMS7003;41397;49.972;18.944;2022-07-17T01:15:20;4;4;4
55549;PMS7003;41397;49.972;18.944;2022-07-17T01:20:37;2;2;2
55549;PMS7003;41397;49.972;18.944;2022-07-17T01:21:37;2;2;2
55549;PMS7003;41397;49.972;18.944;2022-07-17T01:25:52;6;6;6
55549;PMS7003;41397;49.972;18.944;2022-07-17T01:31:06;7;7;5
55549;PMS7003;41397;49.972;18.944;2022-07-17T01:36:23;2;2;1
55549;PMS7003;41397;49.972;18.944;2022-07-17T01:41:37;3;3;3
55549;PMS7003;41397;49.972;18.944;2022-07-17T01:46:52;3;3;3
55549;PMS7003;41397;49.972;18.944;2022-07-17T01:51:52;4;4;4
55549;PMS7003;41397;49.972;18.944;2022-07-17T01:52:06;4;4;4
55549;PMS7003;41397;49.972;18.944;2022-07-17T01:57:20;10;10;6
55549;PMS7003;41397;49.972;18.944;2022-07-17T02:02:34;5;5;5
55549;PMS7003;41397;49.972;18.944;2022-07-17T02:07:48;6;6;5
55549;PMS7003;41397;49.972;18.944;2022-07-17T02:13:02;8;8;8
55549;PMS7003;41397;49.972;18.944;2022-07-17T02:18:16;4;4;4
55549;PMS7003;41397;49.972;18.944;2022-07-17T02:22:06;7;7;7
55549;PMS7003;41397;49.972;18.944;2022-07-17T02:23:29;3;3;3
55549;PMS7003;41397;49.972;18.944;2022-07-17T02:28:46;14;14;10
55549;PMS7003;41397;49.972;18.944;2022-07-17T02:34:01;4;4;4
55549;PMS7003;41397;49.972;18.944;2022-07-17T02:39:18;2;2;2
55549;PMS7003;41397;49.972;18.944;2022-07-17T02:44:31;7;7;7
55549;PMS7003;41397;49.972;18.944;2022-07-17T02:49:46;9;9;8
55549;PMS7003;41397;49.972;18.944;2022-07-17T02:52:19;6;6;5
55549;PMS7003;41397;49.972;18.944;2022-07-17T02:54:59;6;6;6
55549;PMS7003;41397;49.972;18.944;2022-07-17T03:00:14;5;5;4
55549;PMS7003;41397;49.972;18.944;2022-07-17T03:05:29;4;4;4
55549;PMS7003;41397;49.972;18.944;2022-07-17T03:10:43;16;16;10
55549;PMS7003;41397;49.972;18.944;2022-07-17T03:15:57;2;2;2
55549;PMS7003;41397;49.972;18.944;2022-07-17T03:21:11;9;9;7
55549;PMS7003;41397;49.972;18.944;2022-07-17T03:22:33;5;5;5
55549;PMS7003;41397;49.972;18.944;2022-07-17T03:26:24;6;6;4
55549;PMS7003;41397;49.972;18.944;2022-07-17T03:31:38;5;5;3
55549;PMS7003;41397;49.972;18.944;2022-07-17T03:36:52;6;6;6
55549;PMS7003;41397;49.972;18.944;2022-07-17T03:42:06;1;1;1
55549;PMS7003;41397;49.972;18.944;2022-07-17T03:47:19;6;6;6
55549;PMS7003;41397;49.972;18.944;2022-07-17T03:52:33;5;5;5
55549;PMS7003;41397;49.972;18.944;2022-07-17T03:52:48;5;5;5
55549;PMS7003;41397;49.972;18.944;2022-07-17T03:57:48;7;7;4
55549;PMS7003;41397;49.972;18.944;2022-07-17T04:03:02;5;5;4
55549;PMS7003;41397;49.972;18.944;2022-07-17T04:08:20;1;1;1
55549;PMS7003;41397;49.972;18.944;2022-07-17T04:13:37;7;7;5
55549;PMS7003;41397;49.972;18.944;2022-07-17T04:18:54;5;5;3
55549;PMS7003;41397;49.972;18.944;2022-07-17T04:23:02;2;2;2
55549;PMS7003;41397;49.972;18.944;2022-07-17T04:24:07;2;2;2
55549;PMS7003;41397;49.972;18.944;2022-07-17T04:29:21;2;2;2
55549;PMS7003;41397;49.972;18.944;2022-07-17T04:34:35;2;2;2
55549;PMS7003;41397;49.972;18.944;2022-07-17T04:39:49;3;3;3
55549;PMS7003;41397;49.972;18.944;2022-07-17T04:45:03;5;5;3
55549;PMS7003;41397;49.972;18.944;2022-07-17T04:50:18;2;2;0
55549;PMS7003;41397;49.972;18.944;2022-07-17T04:53:17;6;6;4
55549;PMS7003;41397;49.972;18.944;2022-07-17T04:55:32;2;2;2
55549;PMS7003;41397;49.972;18.944;2022-07-17T05:00:45;3;3;2
55549;PMS7003;41397;49.972;18.944;2022-07-17T05:05:59;6;6;4
55549;PMS7003;41397;49.972;18.944;2022-07-17T05:11:13;1;1;1
55549;PMS7003;41397;49.972;18.944;2022-07-17T05:16:27;1;1;1
55549;PMS7003;41397;49.972;18.944;2022-07-17T05:21:40;3;3;3
55549;PMS7003;41397;49.972;18.944;2022-07-17T05:23:31;3;3;3
55549;PMS7003;41397;49.972;18.944;2022-07-17T05:26:54;3;3;2
55549;PMS7003;41397;49.972;18.944;2022-07-17T05:32:08;0;0;0
55549;PMS7003;41397;49.972;18.944;2022-07-17T05:37:21;23;19;13
55549;PMS7003;41397;49.972;18.944;2022-07-17T05:42:35;1;1;1
55549;PMS7003;41397;49.972;18.944;2022-07-17T05:47:49;0;0;0
55549;PMS7003;41397;49.972;18.944;2022-07-17T05:53:03;0;0;0
55549;PMS7003;41397;49.972;18.944;2022-07-17T05:53:45;1;1;1
55549;PMS7003;41397;49.972;18.944;2022-07-17T05:58:17;1;1;1
55549;PMS7003;41397;49.972;18.944;2022-07-17T06:03:31;1;1;1
55549;PMS7003;41397;49.972;18.944;2022-07-17T06:08:44;2;2;1
55549;PMS7003;41397;49.972;18.944;2022-07-17T06:13:58;1;1;1
55549;PMS7003;41397;49.972;18.944;2022-07-17T06:19:12;0;0;0
55549;PMS7003;41397;49.972;18.944;2022-07-17T06:23:58;0;0;0
55549;PMS7003;41397;49.972;18.944;2022-07-17T06:24:25;0;0;0
55549;PMS7003;41397;49.972;18.944;2022-07-17T06:29:39;0;0;0
55549;PMS7003;41397;49.972;18.944;2022-07-17T06:34:53;0;0;0
55549;PMS7003;41397;49.972;18.944;2022-07-17T06:40:07;0;0;0
55549;PMS7003;41397;49.972;18.944;2022-07-17T06:45:24;0;0;0
55549;PMS7003;41397;49.972;18.944;2022-07-17T06:50:41;0;0;0
55549;PMS7003;41397;49.972;18.944;2022-07-17T06:54:12;0;0;0
55549;PMS7003;41397;49.972;18.944;2022-07-17T06:55:54;0;0;0
55549;PMS7003;41397;49.972;18.944;2022-07-17T07:01:08;0;0;0
55549;PMS7003;41397;49.972;18.944;2022-07-17T07:06:22;0;0;0
55549;PMS7003;41397;49.972;18.944;2022-07-17T07:11:36;0;0;0
55549;PMS7003;41397;49.972;18.944;2022-07-17T07:16:51;0;0;0
55549;PMS7003;41397;49.972;18.944;2022-07-17T07:22:05;0;0;0
55549;PMS7003;41397;49.972;18.944;2022-07-17T07:24:26;1;1;0
55549;PMS7003;41397;49.972;18.944;2022-07-17T07:27:19;0;0;0
55549;PMS7003;41397;49.972;18.944;2022-07-17T07:32:33;11;11;8
55549;PMS7003;41397;49.972;18.944;2022-07-17T07:37:46;0;0;0
55549;PMS7003;41397;49.972;18.944;2022-07-17T07:43:01;0;0;0
55549;PMS7003;41397;49.972;18.944;2022-07-17T07:48:15;0;0;0
55549;PMS7003;41397;49.972;18.944;2022-07-17T07:53:29;0;0;0
55549;PMS7003;41397;49.972;18.944;2022-07-17T07:54:39;0;0;0
55549;PMS7003;41397;49.972;18.944;2022-07-17T07:58:42;0;0;0
55549;PMS7003;41397;49.972;18.944;2022-07-17T08:03:56;0;0;0
55549;PMS7003;41397;49.972;18.944;2022-07-17T08:09:10;0;0;0
55549;PMS7003;41397;49.972;18.944;2022-07-17T08:14:26;0;0;0
55549;PMS7003;41397;49.972;18.944;2022-07-17T08:19:41;0;0;0
55549;PMS7003;41397;49.972;18.944;2022-07-17T08:24:53;0;0;0
55549;PMS7003;41397;49.972;18.944;2022-07-17T08:25:07;0;0;0
55549;PMS7003;41397;49.972;18.944;2022-07-17T08:30:21;0;0;0
55549;PMS7003;41397;49.972;18.944;2022-07-17T08:35:34;0;0;0
55549;PMS7003;41397;49.972;18.944;2022-07-17T08:40:49;0;0;0
55549;PMS7003;41397;49.972;18.944;2022-07-17T08:46:09;0;0;0
55549;PMS7003;41397;49.972;18.944;2022-07-17T08:51:24;0;0;0
55549;PMS7003;41397;49.972;18.944;2022-07-17T08:55:10;0;0;0
55549;PMS7003;41397;49.972;18.944;2022-07-17T08:56:40;0;0;0
55549;PMS7003;41397;49.972;18.944;2022-07-17T09:01:54;0;0;0
55549;PMS7003;41397;49.972;18.944;2022-07-17T09:07:07;0;0;0
55549;PMS7003;41397;49.972;18.944;2022-07-17T09:12:25;0;0;0
55549;PMS7003;41397;49.972;18.944;2022-07-17T09:17:47;0;0;0
55549;PMS7003;41397;49.972;18.944;2022-07-17T09:23:04;0;0;0
55549;PMS7003;41397;49.972;18.944;2022-07-17T09:28:19;3;3;3
55549;PMS7003;41397;49.972;18.944;2022-07-17T09:33:34;0;0;0
55549;PMS7003;41397;49.972;18.944;2022-07-17T09:38:48;2;2;2
55549;PMS7003;41397;49.972;18.944;2022-07-17T09:44:05;0;0;0
55549;PMS7003;41397;49.972;18.944;2022-07-17T09:49:20;0;0;0
55549;PMS7003;41397;49.972;18.944;2022-07-17T09:54:39;0;0;0
55549;PMS7003;41397;49.972;18.944;2022-07-17T09:55:47;0;0;0
55549;PMS7003;41397;49.972;18.944;2022-07-17T09:59:54;0;0;0
55549;PMS7003;41397;49.972;18.944;2022-07-17T10:05:13;0;0;0
55549;PMS7003;41397;49.972;18.944;2022-07-17T10:10:32;0;0;0
55549;PMS7003;41397;49.972;18.944;2022-07-17T10:15:50;0;0;0
55549;PMS7003;41397;49.972;18.944;2022-07-17T10:21:10;1;1;1
55549;PMS7003;41397;49.972;18.944;2022-07-17T10:26:05;0;0;0
55549;PMS7003;41397;49.972;18.944;2022-07-17T10:31:52;0;0;0
55549;PMS7003;41397;49.972;18.944;2022-07-17T10:47:59;0;0;0
55549;PMS7003;41397;49.972;18.944;2022-07-17T10:56:19;0;0;0
55549;PMS7003;41397;49.972;18.944;2022-07-17T11:05:18;0;0;0
55549;PMS7003;41397;49.972;18.944;2022-07-17T11:22:30;0;0;0
55549;PMS7003;41397;49.972;18.944;2022-07-17T11:26:36;0;0;0
55549;PMS7003;41397;49.972;18.944;2022-07-17T11:27:43;0;0;0
55549;PMS7003;41397;49.972;18.944;2022-07-17T11:33:29;0;0;0
55549;PMS7003;41397;49.972;18.944;2022-07-17T11:38:46;0;0;0
55549;PMS7003;41397;49.972;18.944;2022-07-17T11:44:00;1;1;1
55549;PMS7003;41397;49.972;18.944;2022-07-17T11:57:26;0;0;0
55549;PMS7003;41397;49.972;18.944;2022-07-17T12:00:05;0;0;0
55549;PMS7003;41397;49.972;18.944;2022-07-17T12:10:41;0;0;0
55549;PMS7003;41397;49.972;18.944;2022-07-17T12:15:56;0;0;0
55549;PMS7003;41397;49.972;18.944;2022-07-17T12:21:10;0;0;0
55549;PMS7003;41397;49.972;18.944;2022-07-17T12:26:24;0;0;0
55549;PMS7003;41397;49.972;18.944;2022-07-17T12:27:42;0;0;0
55549;PMS7003;41397;49.972;18.944;2022-07-17T12:31:38;0;0;0
55549;PMS7003;41397;49.972;18.944;2022-07-17T12:36:52;0;0;0
55549;PMS7003;41397;49.972;18.944;2022-07-17T12:42:05;0;0;0
55549;PMS7003;41397;49.972;18.944;2022-07-17T12:47:21;0;0;0
55549;PMS7003;41397;49.972;18.944;2022-07-17T12:52:35;0;0;0
55549;PMS7003;41397;49.972;18.944;2022-07-17T12:57:49;0;0;0
55549;PMS7003;41397;49.972;18.944;2022-07-17T12:58:03;0;0;0
55549;PMS7003;41397;49.972;18.944;2022-07-17T13:03:03;0;0;0
55549;PMS7003;41397;49.972;18.944;2022-07-17T13:08:17;1;1;1
55549;PMS7003;41397;49.972;18.944;2022-07-17T13:13:31;0;0;0
55549;PMS7003;41397;49.972;18.944;2022-07-17T13:18:45;0;0;0
55549;PMS7003;41397;49.972;18.944;2022-07-17T13:24:00;0;0;0
55549;PMS7003;41397;49.972;18.944;2022-07-17T13:28:17;0;0;0
55549;PMS7003;41397;49.972;18.944;2022-07-17T13:29:17;0;0;0
55549;PMS7003;41397;49.972;18.944;2022-07-17T13:34:31;0;0;0
55549;PMS7003;41397;49.972;18.944;2022-07-17T13:39:44;0;0;0
55549;PMS7003;41397;49.972;18.944;2022-07-17T13:44:58;0;0;0
55549;PMS7003;41397;49.972;18.944;2022-07-17T13:50:12;0;0;0
55549;PMS7003;41397;49.972;18.944;2022-07-17T13:55:25;0;0;0
55549;PMS7003;41397;49.972;18.944;2022-07-17T13:58:31;0;0;0
55549;PMS7003;41397;49.972;18.944;2022-07-17T14:00:39;0;0;0
55549;PMS7003;41397;49.972;18.944;2022-07-17T14:05:53;0;0;0
55549;PMS7003;41397;49.972;18.944;2022-07-17T14:11:11;0;0;0
55549;PMS7003;41397;49.972;18.944;2022-07-17T14:16:26;0;0;0
55549;PMS7003;41397;49.972;18.944;2022-07-17T14:21:40;0;0;0
55549;PMS7003;41397;49.972;18.944;2022-07-17T14:26:54;1;1;1
55549;PMS7003;41397;49.972;18.944;2022-07-17T14:28:46;1;1;1
55549;PMS7003;41397;49.972;18.944;2022-07-17T14:32:07;0;0;0
55549;PMS7003;41397;49.972;18.944;2022-07-17T14:37:21;0;0;0
55549;PMS7003;41397;49.972;18.944;2022-07-17T14:42:35;0;0;0
55549;PMS7003;41397;49.972;18.944;2022-07-17T14:47:49;0;0;0
55549;PMS7003;41397;49.972;18.944;2022-07-17T14:53:03;0;0;0
55549;PMS7003;41397;49.972;18.944;2022-07-17T14:58:17;0;0;0
55549;PMS7003;41397;49.972;18.944;2022-07-17T14:59:00;0;0;0
55549;PMS7003;41397;49.972;18.944;2022-07-17T15:03:34;0;0;0
55549;PMS7003;41397;49.972;18.944;2022-07-17T15:08:48;0;0;0
55549;PMS7003;41397;49.972;18.944;2022-07-17T15:14:02;0;0;0
55549;PMS7003;41397;49.972;18.944;2022-07-17T15:19:16;0;0;0
55549;PMS7003;41397;49.972;18.944;2022-07-17T15:24:29;0;0;0
55549;PMS7003;41397;49.972;18.944;2022-07-17T15:29:17;0;0;0
55549;PMS7003;41397;49.972;18.944;2022-07-17T15:29:43;0;0;0
55549;PMS7003;41397;49.972;18.944;2022-07-17T15:34:57;0;0;0
55549;PMS7003;41397;49.972;18.944;2022-07-17T15:40:10;0;0;0
55549;PMS7003;41397;49.972;18.944;2022-07-17T15:45:24;2;2;2
55549;PMS7003;41397;49.972;18.944;2022-07-17T15:50:38;0;0;0
55549;PMS7003;41397;49.972;18.944;2022-07-17T15:55:52;0;0;0
55549;PMS7003;41397;49.972;18.944;2022-07-17T15:59:31;0;0;0
55549;PMS7003;41397;49.972;18.944;2022-07-17T16:01:05;1;1;0
55549;PMS7003;41397;49.972;18.944;2022-07-17T16:06:19;2;2;0
55549;PMS7003;41397;49.972;18.944;2022-07-17T16:11:33;1;1;1
55549;PMS7003;41397;49.972;18.944;2022-07-17T16:16:47;0;0;0
55549;PMS7003;41397;49.972;18.944;2022-07-17T16:22:01;0;0;0
55549;PMS7003;41397;49.972;18.944;2022-07-17T16:27:15;1;1;0
55549;PMS7003;41397;49.972;18.944;2022-07-17T16:29:44;0;0;0
55549;PMS7003;41397;49.972;18.944;2022-07-17T16:32:28;0;0;0
55549;PMS7003;41397;49.972;18.944;2022-07-17T16:37:42;1;1;1
55549;PMS7003;41397;49.972;18.944;2022-07-17T16:42:56;0;0;0
55549;PMS7003;41397;49.972;18.944;2022-07-17T16:48:10;0;0;0
55549;PMS7003;41397;49.972;18.944;2022-07-17T16:53:23;0;0;0
55549;PMS7003;41397;49.972;18.944;2022-07-17T16:58:37;2;2;2
55549;PMS7003;41397;49.972;18.944;2022-07-17T16:59:58;0;0;0
55549;PMS7003;41397;49.972;18.944;2022-07-17T17:03:51;0;0;0
55549;PMS7003;41397;49.972;18.944;2022-07-17T17:09:06;0;0;0
55549;PMS7003;41397;49.972;18.944;2022-07-17T17:20:14;2;2;2
55549;PMS7003;41397;49.972;18.944;2022-07-17T17:25:28;2;2;2
55549;PMS7003;41397;49.972;18.944;2022-07-17T17:30:12;1;1;1
55549;PMS7003;41397;49.972;18.944;2022-07-17T17:30:41;1;1;1
55549;PMS7003;41397;49.972;18.944;2022-07-17T17:35:55;0;0;0
55549;PMS7003;41397;49.972;18.944;2022-07-17T17:41:10;0;0;0
55549;PMS7003;41397;49.972;18.944;2022-07-17T17:46:24;0;0;0
55549;PMS7003;41397;49.972;18.944;2022-07-17T17:51:38;0;0;0
55549;PMS7003;41397;49.972;18.944;2022-07-17T17:56:51;2;2;2
55549;PMS7003;41397;49.972;18.944;2022-07-17T18:00:29;6;6;6
55549;PMS7003;41397;49.972;18.944;2022-07-17T18:02:06;0;0;0
55549;PMS7003;41397;49.972;18.944;2022-07-17T18:07:20;3;3;3
55549;PMS7003;41397;49.972;18.944;2022-07-17T20:47:33;10;10;7
55549;PMS7003;41397;49.972;18.944;2022-07-17T20:53:14;9;9;8
55549;PMS7003;41397;49.972;18.944;2022-07-17T21:28:38;11;11;7
55549;PMS7003;41397;49.972;18.944;2022-07-17T21:36:30;4;4;4
55549;PMS7003;41397;49.972;18.944;2022-07-17T21:46:43;5;5;5
55549;PMS7003;41397;49.972;18.944;2022-07-17T21:58:05;7;7;7
55549;PMS7003;41397;49.972;18.944;2022-07-17T22:15:15;6;6;5
55549;PMS7003;41397;49.972;18.944;2022-07-17T22:24:25;6;6;6
55549;PMS7003;41397;49.972;18.944;2022-07-17T22:29:42;7;7;6
55549;PMS7003;41397;49.972;18.944;2022-07-17T22:34:56;10;10;9
55549;PMS7003;41397;49.972;18.944;2022-07-17T22:40:10;9;9;8
55549;PMS7003;41397;49.972;18.944;2022-07-17T22:45:24;6;6;6
55549;PMS7003;41397;49.972;18.944;2022-07-17T22:49:20;13;13;12
55549;PMS7003;41397;49.972;18.944;2022-07-17T22:50:38;8;8;8
55549;PMS7003;41397;49.972;18.944;2022-07-17T22:55:52;11;11;9
55549;PMS7003;41397;49.972;18.944;2022-07-17T23:01:06;8;8;8
55549;PMS7003;41397;49.972;18.944;2022-07-17T23:06:20;6;6;5
55549;PMS7003;41397;49.972;18.944;2022-07-17T23:11:34;6;6;6
55549;PMS7003;41397;49.972;18.944;2022-07-17T23:16:48;8;8;6
55549;PMS7003;41397;49.972;18.944;2022-07-17T23:19:34;12;12;10
55549;PMS7003;41397;49.972;18.944;2022-07-17T23:22:02;9;9;8
55549;PMS7003;41397;49.972;18.944;2022-07-17T23:27:16;10;10;8
55549;PMS7003;41397;49.972;18.944;2022-07-17T23:32:33;6;6;5
55549;PMS7003;41397;49.972;18.944;2022-07-17T23:37:50;12;8;7
55549;PMS7003;41397;49.972;18.944;2022-07-17T23:43:03;11;11;10
55549;PMS7003;41397;49.972;18.944;2022-07-17T23:48:17;2;2;1
55549;PMS7003;41397;49.972;18.944;2022-07-17T23:49:48;9;9;9
55549;PMS7003;41397;49.972;18.944;2022-07-17T23:53:31;11;11;10
55549;PMS7003;41397;49.972;18.944;2022-07-17T23:58:44;5;5;5
